Flight Track Log - Related Links

Times and Time Zones

All times are in EDT time to prevent confusion due to time zone crossing. See the SWA1688 flight status page for this flight to view local times or setup timezone preferences in your user account.


Time Position Orientation Groundspeed Altitude Reporting Facility
EDT Latitude Longitude Course Direction KTS MPH feet Rate Location/Type
Sat 08:19:55 PM 33.4333 -111.9167 90° East 223 257 3,500  Level Phoenix TRACON
Sat 08:20:49 PM 33.4333 -111.8500 90° East 263 303 5,700 2,750 Climbing Phoenix TRACON
Sat 08:21:55 PM 33.4000 -111.7500 112° Southeast 293 337 9,000 2,483 Climbing Phoenix TRACON
Sat 08:23:14 PM 33.4342 -111.6311 71° East 320 368 11,700 2,400 Climbing Albuquerque Center
Sat 08:24:15 PM 33.4650 -111.5186 72° East 346 398 14,600 2,927 Climbing Albuquerque Center
Sat 08:25:17 PM 33.5022 -111.3769 72° East 367 422 17,700 2,634 Climbing Albuquerque Center
Sat 08:26:18 PM 33.5169 -111.2467 82° East 391 450 20,000 2,262 Climbing Albuquerque Center
Sat 08:27:19 PM 33.5356 -111.1139 80° East 403 464 22,300 2,066 Climbing Albuquerque Center
Sat 08:28:20 PM 33.5842 -110.9853 66° East 423 487 24,200 1,820 Climbing Albuquerque Center
Sat 08:29:21 PM 33.6331 -110.8550 66° East 428 493 26,000 1,574 Climbing Albuquerque Center
Sat 08:30:22 PM 33.6819 -110.7217 66° East 434 499 27,400 1,377 Climbing Albuquerque Center
Sat 08:31:23 PM 33.7331 -110.5808 66° East 450 518 28,800 1,426 Climbing Albuquerque Center
Sat 08:32:24 PM 33.7861 -110.4372 66° East 464 534 30,300 1,623 Climbing Albuquerque Center
Sat 08:33:25 PM 33.8406 -110.2867 66° East 474 545 32,100 1,770 Climbing Albuquerque Center
Sat 08:34:26 PM 33.8928 -110.1422 66° East 472 543 33,900 1,623 Climbing Albuquerque Center
Sat 08:35:27 PM 33.9458 -110.0008 66° East 467 537 35,400 1,574 Climbing Albuquerque Center
Sat 08:36:28 PM 33.9961 -109.8614 66° East 459 528 37,100 1,377 Climbing Albuquerque Center
Sat 08:37:29 PM 34.0486 -109.7106 67° East 450 518 38,200 885 Climbing Albuquerque Center
Sat 08:38:30 PM 34.1053 -109.5564 66° East 450 518 38,900 393 Climbing Albuquerque Center
Sat 08:39:31 PM 34.1553 -109.4158 67° East 455 524 39,000 49 Climbing Albuquerque Center
Sat 08:40:32 PM 34.2050 -109.2725 67° East 460 529 39,000  Level Albuquerque Center
Sat 08:41:33 PM 34.2550 -109.1306 67° East 459 528 39,000  Level Albuquerque Center
Sat 08:42:34 PM 34.3050 -108.9897 67° East 461 531 39,000  Level Albuquerque Center
Sat 08:43:35 PM 34.3608 -108.8289 67° East 463 533 39,000  Level Albuquerque Center
Sat 08:44:36 PM 34.4083 -108.6917 67° East 462 532 39,000  Level Albuquerque Center
Sat 08:45:37 PM 34.4561 -108.5553 67° East 463 533 39,000  Level Albuquerque Center
Sat 08:46:38 PM 34.5106 -108.3978 67° East 460 529 39,000  Level Albuquerque Center
Sat 08:47:39 PM 34.5583 -108.2553 68° East 458 527 39,000  Level Albuquerque Center
Sat 08:48:40 PM 34.6075 -108.1139 67° East 457 526 39,000  Level Albuquerque Center
Sat 08:49:41 PM 34.6553 -107.9706 68° East 457 526 39,000  Level Albuquerque Center
Sat 08:50:42 PM 34.7036 -107.8294 67° East 455 524 39,000  Level Albuquerque Center
Sat 08:51:43 PM 34.7517 -107.6861 68° East 458 527 39,000  Level Albuquerque Center
Sat 08:52:44 PM 34.7994 -107.5414 68° East 460 529 39,000  Level Albuquerque Center
Sat 08:53:45 PM 34.8553 -107.3789 67° East 458 527 39,000  Level Albuquerque Center
Sat 08:54:46 PM 34.9008 -107.2369 69° East 453 521 39,000  Level Albuquerque Center
Sat 08:55:46 PM 34.9475 -107.0958 68° East 451 519 39,000  Level Albuquerque Center
Sat 08:56:47 PM 34.9939 -106.9553 68° East 448 516 39,000  Level Albuquerque Center
Sat 08:57:48 PM 35.0406 -106.8139 68° East 451 519 39,000  Level Albuquerque Center
Sat 08:58:49 PM 35.0867 -106.6736 68° East 449 517 39,000  Level Albuquerque Center
Sat 08:59:50 PM 35.1328 -106.5283 69° East 460 529 39,000  Level Albuquerque Center
Sat 09:00:51 PM 35.1761 -106.3847 70° East 458 527 39,000  Level Albuquerque Center
Sat 09:01:52 PM 35.2225 -106.2442 68° East 453 521 39,000  Level Albuquerque Center
Sat 09:02:53 PM 35.2672 -106.1033 69° East 449 517 39,000  Level Albuquerque Center
Sat 09:03:54 PM 35.3125 -105.9611 69° East 452 520 39,000  Level Albuquerque Center
Sat 09:04:55 PM 35.3678 -105.7881 69° East 458 527 39,000  Level Albuquerque Center
Sat 09:05:56 PM 35.4128 -105.6431 69° East 460 529 39,000  Level Albuquerque Center
Sat 09:06:57 PM 35.4567 -105.5056 69° East 457 526 39,000  Level Albuquerque Center
Sat 09:07:58 PM 35.5028 -105.3600 69° East 455 524 39,000  Level Albuquerque Center
Sat 09:08:58 PM 35.5478 -105.2136 69° East 453 521 39,000  Level Albuquerque Center
Sat 09:09:59 PM 35.5933 -105.0694 69° East 449 517 39,000  Level Albuquerque Center
Sat 09:11:00 PM 35.6369 -104.9222 70° East 452 520 39,000  Level Albuquerque Center
Sat 09:12:01 PM 35.6806 -104.7797 69° East 444 511 39,000  Level Albuquerque Center
Sat 09:13:02 PM 35.7256 -104.6336 69° East 447 514 39,000  Level Albuquerque Center
Sat 09:14:03 PM 35.7697 -104.4869 70° East 450 518 39,000  Level Albuquerque Center
Sat 09:15:04 PM 35.8139 -104.3397 70° East 452 520 39,000  Level Albuquerque Center
Sat 09:16:05 PM 35.8583 -104.1933 69° East 451 519 39,000  Level Albuquerque Center
Sat 09:17:06 PM 35.9019 -104.0450 70° East 453 521 39,000  Level Albuquerque Center
Sat 09:18:07 PM 35.9456 -103.8967 70° East 455 524 39,000  Level Albuquerque Center
Sat 09:19:08 PM 35.9897 -103.7478 70° East 456 525 39,000  Level Albuquerque Center
Sat 09:20:09 PM 36.0325 -103.6008 70° East 453 521 39,000  Level Albuquerque Center
Sat 09:21:10 PM 36.0756 -103.4531 70° East 452 520 39,000  Level Albuquerque Center
Sat 09:22:10 PM 36.1189 -103.3061 70° East 451 519 39,000  Level Albuquerque Center
Sat 09:23:11 PM 36.1619 -103.1592 70° East 450 518 39,000  Level Albuquerque Center
Sat 09:24:12 PM 36.2028 -103.0114 71° East 451 519 39,000  Level Albuquerque Center
Sat 09:25:13 PM 36.2469 -102.8597 70° East 447 514 39,000  Level Albuquerque Center
Sat 09:26:14 PM 36.2869 -102.7153 71° East 444 511 39,000  Level Albuquerque Center
Sat 09:27:15 PM 36.3275 -102.5719 71° East 442 509 39,000  Level Albuquerque Center
Sat 09:28:15 PM 36.3678 -102.4300 71° East 438 504 39,000  Level Albuquerque Center
Sat 09:29:16 PM 36.4081 -102.2861 71° East 440 506 39,000  Level Albuquerque Center
Sat 09:30:17 PM 36.4475 -102.1408 71° East 442 509 39,000  Level Albuquerque Center
Sat 09:31:18 PM 36.4881 -101.9972 71° East 442 509 39,000  Level Albuquerque Center
Sat 09:32:19 PM 36.5278 -101.8528 71° East 441 507 39,000  Level Albuquerque Center
Sat 09:33:19 PM 36.5675 -101.7064 71° East 444 511 39,000  Level Albuquerque Center
Sat 09:34:20 PM 36.6119 -101.5444 71° East 448 516 39,000  Level Albuquerque Center
Sat 09:35:21 PM 36.6494 -101.4047 71° East 447 514 39,000  Level Albuquerque Center
Sat 09:36:22 PM 36.6933 -101.2397 72° East 449 517 39,000  Level Albuquerque Center
Sat 09:37:23 PM 36.7308 -101.0964 72° East 453 521 39,000  Level Albuquerque Center
Sat 09:38:41 PM 36.7814 -100.9114 71° East 448 516 39,000  Level Kansas City Center
Sat 09:39:42 PM 36.8244 -100.7478 72° East 447 514 39,000  Level Kansas City Center
Sat 09:40:43 PM 36.8603 -100.6075 72° East 446 513 39,000  Level Kansas City Center
Sat 09:41:44 PM 36.9031 -100.4456 72° East 443 510 39,000  Level Kansas City Center
Sat 09:42:45 PM 36.9389 -100.3072 72° East 440 506 39,000  Level Kansas City Center
Sat 09:43:46 PM 36.9736 -100.1681 73° East 441 507 39,000  Level Kansas City Center
Sat 09:44:46 PM 37.0156 -100.0081 72° East 438 504 39,000  Level Kansas City Center
Sat 09:45:47 PM 37.0497 -99.8717 73° East 434 499 39,000  Level Kansas City Center
Sat 09:46:48 PM 37.0847 -99.7353 72° East 432 497 39,000  Level Kansas City Center
Sat 09:47:49 PM 37.1247 -99.5756 73° East 432 497 39,000  Level Kansas City Center
Sat 09:48:50 PM 37.1581 -99.4411 73° East 433 498 39,000  Level Kansas City Center
Sat 09:49:50 PM 37.1953 -99.2928 72° East 439 505 39,000  Level Kansas City Center
Sat 09:50:51 PM 37.2306 -99.1472 73° East 436 502 39,000  Level Kansas City Center
Sat 09:51:52 PM 37.2669 -98.9997 73° East 436 502 39,000  Level Kansas City Center
Sat 09:52:53 PM 37.3031 -98.8550 73° East 436 502 39,000  Level Kansas City Center
Sat 09:53:54 PM 37.3378 -98.7100 73° East 435 501 39,000  Level Kansas City Center
Sat 09:54:54 PM 37.3728 -98.5644 73° East 435 501 39,000  Level Kansas City Center
Sat 09:55:55 PM 37.4072 -98.4200 73° East 435 501 39,000  Level Kansas City Center
Sat 09:56:56 PM 37.4408 -98.2758 74° East 433 498 39,000  Level Kansas City Center
Sat 09:57:57 PM 37.4744 -98.1317 74° East 432 497 39,000  Level Kansas City Center
Sat 09:58:59 PM 37.5153 -97.9589 73° East 433 498 39,000  Level Kansas City Center
Sat 10:00:00 PM 37.5492 -97.8142 74° East 434 499 39,000  Level Kansas City Center
Sat 10:01:01 PM 37.5844 -97.6678 73° East 440 506 39,000  Level Kansas City Center
Sat 10:02:01 PM 37.6175 -97.5208 74° East 440 506 39,000  Level Kansas City Center
Sat 10:03:02 PM 37.6514 -97.3742 74° East 439 505 39,000  Level Kansas City Center
Sat 10:04:03 PM 37.6844 -97.2297 74° East 434 499 39,000  Level Kansas City Center
Sat 10:05:03 PM 37.7178 -97.0853 74° East 431 496 39,000  Level Kansas City Center
Sat 10:06:05 PM 37.7503 -96.9400 74° East 430 495 39,000  Level Kansas City Center
Sat 10:07:05 PM 37.7828 -96.7947 74° East 430 495 39,000  Level Kansas City Center
Sat 10:08:06 PM 37.8164 -96.6489 74° East 433 498 39,000  Level Kansas City Center
Sat 10:09:06 PM 37.8475 -96.5033 75° East 430 495 39,000  Level Kansas City Center
Sat 10:10:07 PM 37.8803 -96.3575 74° East 432 497 39,000  Level Kansas City Center
Sat 10:11:08 PM 37.9139 -96.1789 77° East 436 502 39,000  Level Kansas City Center
Sat 10:12:08 PM 37.9417 -96.0367 76° East 430 495 39,000  Level Kansas City Center
Sat 10:13:09 PM 37.9700 -95.8933 76° East 435 501 39,000  Level Kansas City Center
Sat 10:14:09 PM 37.9972 -95.7497 76° East 438 504 39,000  Level Kansas City Center
Sat 10:15:10 PM 38.0292 -95.5844 76° East 435 501 39,000  Level Kansas City Center
Sat 10:16:11 PM 38.0561 -95.4408 77° East 437 503 39,000  Level Kansas City Center
Sat 10:17:11 PM 38.0878 -95.2750 76° East 435 501 39,000  Level Kansas City Center
Sat 10:18:12 PM 38.1139 -95.1342 77° East 432 497 39,000  Level Kansas City Center
Sat 10:19:13 PM 38.1400 -94.9925 77° East 431 496 39,000  Level Kansas City Center
Sat 10:20:13 PM 38.1658 -94.8508 77° East 431 496 39,000  Level Kansas City Center
Sat 10:21:14 PM 38.1964 -94.6861 77° East 432 497 39,000  Level Kansas City Center
Sat 10:22:14 PM 38.2208 -94.5450 78° East 430 495 39,000  Level Kansas City Center
Sat 10:23:15 PM 38.2472 -94.4011 77° East 433 498 39,000  Level Kansas City Center
Sat 10:24:15 PM 38.2786 -94.2336 77° East 436 502 39,000  Level Kansas City Center
Sat 10:25:16 PM 38.3042 -94.0831 78° East 433 498 39,000  Level Kansas City Center
Sat 10:26:17 PM 38.3297 -93.9331 78° East 432 497 39,000  Level Kansas City Center
Sat 10:27:17 PM 38.3550 -93.7836 78° East 432 497 39,000  Level Kansas City Center
Sat 10:28:18 PM 38.3817 -93.6331 77° East 433 498 39,000  Level Kansas City Center
Sat 10:29:18 PM 38.4081 -93.4814 77° East 435 501 39,000  Level Kansas City Center
Sat 10:30:19 PM 38.4347 -93.3300 77° East 436 502 39,000  Level Kansas City Center
Sat 10:31:20 PM 38.4597 -93.1797 78° East 434 499 39,000  Level Kansas City Center
Sat 10:32:20 PM 38.4850 -93.0300 78° East 432 497 39,000  Level Kansas City Center
Sat 10:33:21 PM 38.5094 -92.8819 78° East 428 493 39,000  Level Kansas City Center
Sat 10:34:21 PM 38.5347 -92.7342 78° East 425 489 39,000  Level Kansas City Center
Sat 10:35:22 PM 38.5586 -92.5875 78° East 421 484 39,000 -347 Level Kansas City Center
Sat 10:36:22 PM 38.5822 -92.4414 78° East 420 483 38,300 -1,587 Descending Kansas City Center
Sat 10:37:23 PM 38.6056 -92.2939 79° East 420 483 35,800 -2,777 Descending Kansas City Center
Sat 10:38:23 PM 38.6286 -92.1472 79° East 419 482 32,700 -2,777 Descending Kansas City Center
Sat 10:39:24 PM 38.6517 -91.9961 79° East 426 490 30,200 -2,410 Descending Kansas City Center
Sat 10:40:25 PM 38.6753 -91.8494 78° East 422 486 27,800 -2,281 Descending Kansas City Center
Sat 10:41:25 PM 38.6931 -91.7072 81° East 409 471 25,600 -2,231 Descending Kansas City Center
Sat 10:42:26 PM 38.6922 -91.5633 90° East 402 463 23,300 -2,231 Descending Kansas City Center
Sat 10:43:26 PM 38.6922 -91.4236 90° East 395 455 21,100 -2,281 Descending Kansas City Center
Sat 10:44:27 PM 38.6936 -91.2792 89° East 384 442 18,700 -2,231 Descending Kansas City Center
Sat 10:45:27 PM 38.6936 -91.1472 90° East 374 430 16,600 -2,083 Descending Kansas City Center
Sat 10:46:28 PM 38.6983 -91.0206 87° East 362 417 14,500 -2,016 Descending Kansas City Center
Sat 10:47:29 PM 38.7017 -90.8947 88° East 357 411 12,500 -1,983 Descending Kansas City Center
Sat 10:48:29 PM 38.7042 -90.7753 88° East 341 392 10,500 -1,289 Descending Kansas City Center
Sat 10:49:30 PM 38.7081 -90.6639 87° East 318 366 9,900 -992 Descending Kansas City Center
Sat 10:50:30 PM 38.7128 -90.5631 87° East 290 334 8,500 -1,240 Descending Kansas City Center
Sat 10:51:31 PM 38.6875 -90.4728 110° East 281 323 7,400 -992 Descending Kansas City Center
Sat 10:52:31 PM 38.6489 -90.3961 123° Southeast 274 315 6,500 -992 Descending Kansas City Center
Sat 10:53:32 PM 38.6147 -90.3247 121° Southeast 246 283 5,400 -1,388 Descending Kansas City Center
Sat 10:54:32 PM 38.6231 -90.2628 80° East 219 252 3,700 -1,488 Descending Kansas City Center
Sat 10:55:33 PM 38.6828 -90.2669 357° North 192 221 2,400 -1,140 Descending Kansas City Center
Sat 10:56:33 PM 38.7161 -90.2997 323° Northwest 168 193 1,400 -843 Descending Kansas City Center
Sat 10:57:34 PM 38.7369 -90.3419 302° West 150 173 700 -446 Descending Kansas City Center
Sat 10:58:34 PM 38.7581 -90.3861 302° West 149 171 500 -200 Descending Kansas City Center

Login

Don't have an account? Register now (free) for customized features, flight alerts, and more!